Nearby METAR Reports

On this page are routine METAR weather reports submitted by Bureau of Meteorology Airport observation sites in and surrounding South East Queensland.

Reports are usually updated hourly. Note on small screens you wil need drag or scroll to the righ to view reports that are out of view.

 

YBBN - Brisbane Intl Ar, Australia
Distance from station: E 20km
Updated: Mon, 22-Jul-2024 2:00am AEST
Clear
Clear
 Wind from SSW
Wind: SSW 13 km/h
Temperature: 8°C
Wind Chill: 6°C
Dew Point: 4°C
Humidity: 76%
Barometer: 1023 hPa
Summary: Clear
Visibility: greater than 10 km
2024/07/21 16:00 YBBN 211600Z 21007KT CAVOK 08/04 Q1023
YAMB - Amberley, Australia
Distance from station: SW 33km
Updated: Mon, 22-Jul-2024 2:00am AEST
Clear
Clear
 Wind from S
Wind: S 4 km/h
Temperature: 1°C
Dew Point: 0°C
Humidity: 93%
Barometer: 1023 hPa
Clouds: Clear
Visibility: 10 km
2024/07/21 16:00 YAMB 211600Z AUTO 19002KT 9999 // NCD 01/M00 Q1023 RF00.0/000.0
YBSU - Sunshine Coast, Australia
Distance from station: N 90km
Updated: Mon, 22-Jul-2024 2:00am AEST
Clear
Clear
 Wind from WNW
Wind: WNW 11 km/h
Temperature: 5°C
Wind Chill: 2°C
Dew Point: 3°C
Humidity: 87%
Barometer: 1022 hPa
Clouds: Clear
Visibility: 10 km
2024/07/21 16:00 YBSU 211600Z AUTO 29006KT 9999 // NCD 05/03 Q1022 RF00.0/000.0
 
YBCG - Coolangatta Aws, Australia
Distance from station: SSE 102km
Updated: Mon, 22-Jul-2024 2:00am AEST
Clear
Clear
 Wind from S
Wind: S 15 km/h
Temperature: 13°C
Dew Point: 1°C
Humidity: 44%
Barometer: 1022 hPa
Clouds: Clear
Visibility: 10 km
2024/07/21 16:00 YBCG 211600Z AUTO 19008KT 9999 // NCD 13/01 Q1022 RF00.0/000.0
YBWW - Toowoomba, Australia
Distance from station: W 113km
Updated: Mon, 22-Jul-2024 2:00am AEST
Clear
Clear
 Wind from SSW
Wind: SSW 7 km/h
Temperature: 1°C
Wind Chill: -2°C
Dew Point: 0°C
Humidity: 93%
Barometer: 1024 hPa
Clouds: Clear
Visibility: 10 km
2024/07/21 16:00 YBWW 211600Z AUTO 20004KT 9999 // NCD 01/M00 Q1024 RF00.0/000.0
YCFS - Coffs Harbour, Australia
Distance from station: S 325km
Updated: Mon, 22-Jul-2024 2:00am AEST
Clear
Clear
 Wind from SW
Wind: SW 15 km/h
Temperature: 10°C
Wind Chill: 8°C
Dew Point: 3°C
Humidity: 62%
Barometer: 1023 hPa
Clouds: Clear
Visibility: 10 km
2024/07/21 16:00 YCFS 211600Z AUTO 22008KT 9999 // NCD 10/03 Q1023 RF00.0/000.0
 
YGLA - Gladstone, Australia
Distance from station: NNW 429km
Updated: Mon, 22-Jul-2024 2:00am AEST
Clear
Clear
 Wind from SSW
Wind: SSW 7 km/h
Temperature: 10°C
Wind Chill: 9°C
Dew Point: 1°C
Humidity: 54%
Barometer: 1022 hPa
Clouds: Clear
Visibility: 10 km
2024/07/21 16:00 YGLA 211600Z AUTO 21004KT 9999 // NCD 10/01 Q1022 RF00.0/000.0
YSTW - Tamworth Airport, Australia
Distance from station: SSW 456km
Updated: Mon, 22-Jul-2024 2:00am AEST
Clear
Clear
 Wind from calm
Wind: Calm
Temperature: 2°C
Dew Point: 1°C
Humidity: 93%
Barometer: 1025 hPa
Clouds: Clear
Visibility: 10 km
2024/07/21 16:00 YSTW 211600Z AUTO 00000KT 9999 // NCD 02/01 Q1025 RF00.0/000.0

Metar display script from Saratoga-Weather.org